createdAt,value
2023-01-27T00:04:17.004Z,1.77
2023-01-27T00:09:20.273Z,1.76
2023-01-27T00:14:23.743Z,1.71
2023-01-27T00:19:27.251Z,1.65
2023-01-27T00:24:36.765Z,1.59
2023-01-27T00:29:41.045Z,1.54
2023-01-27T00:34:44.118Z,1.53
2023-01-27T00:39:47.417Z,1.61
2023-01-27T00:45:09.396Z,1.73
2023-01-27T00:50:13.021Z,1.79
2023-01-27T00:55:18.705Z,1.73
2023-01-27T01:00:22.063Z,1.67
2023-01-27T01:05:28.697Z,1.62
2023-01-27T01:10:32.136Z,1.57
2023-01-27T01:15:36.959Z,1.50
2023-01-27T01:20:45.412Z,1.50
2023-01-27T01:26:05.774Z,1.55
2023-01-27T01:31:12.651Z,1.64
2023-01-27T01:36:18.952Z,1.73
2023-01-27T01:41:23.364Z,1.71
2023-01-27T01:46:26.740Z,1.67
2023-01-27T01:51:35.324Z,1.62
2023-01-27T01:56:44.220Z,1.55
2023-01-27T02:01:47.999Z,1.48
2023-01-27T02:07:01.840Z,1.43
2023-01-27T02:12:05.781Z,1.45
2023-01-27T02:17:13.527Z,1.52
2023-01-27T02:22:43.378Z,1.55
2023-01-27T02:27:46.618Z,1.63
2023-01-27T02:32:49.739Z,1.61
2023-01-27T02:37:53.079Z,1.56
2023-01-27T02:42:57.898Z,1.48
2023-01-27T02:48:01.146Z,1.41
2023-01-27T02:53:04.853Z,1.38
2023-01-27T02:58:08.219Z,1.38
2023-01-27T03:03:21.496Z,1.38
2023-01-27T03:08:24.896Z,1.51
2023-01-27T03:13:29.011Z,1.56
2023-01-27T03:18:32.056Z,1.56
2023-01-27T03:23:35.992Z,1.52
2023-01-27T03:28:39.867Z,1.47
2023-01-27T03:33:48.970Z,1.47
2023-01-27T03:39:21.428Z,1.45
2023-01-27T03:44:43.357Z,1.45
2023-01-27T03:49:47.114Z,1.43
2023-01-27T03:54:50.558Z,1.48
2023-01-27T03:59:53.909Z,1.62
2023-01-27T04:05:15.830Z,1.70
2023-01-27T04:10:19.170Z,1.71
2023-01-27T04:15:22.808Z,1.72
2023-01-27T04:20:26.048Z,1.63
2023-01-27T04:25:29.252Z,1.54
2023-01-27T04:30:32.645Z,1.53
2023-01-27T04:35:39.009Z,1.46
2023-01-27T04:40:42.832Z,1.43
2023-01-27T04:45:46.340Z,1.44
2023-01-27T04:50:52.174Z,1.48
2023-01-27T04:56:02.186Z,1.63
2023-01-27T05:01:05.283Z,1.67
2023-01-27T05:06:10.943Z,1.63
2023-01-27T05:11:14.669Z,1.55
2023-01-27T05:16:21.436Z,1.46
2023-01-27T05:21:31.126Z,1.37
2023-01-27T05:26:34.250Z,1.31
2023-01-27T05:31:37.487Z,1.29
2023-01-27T05:36:44.034Z,1.30
2023-01-27T05:41:47.605Z,1.34
2023-01-27T05:46:50.829Z,1.41
2023-01-27T05:51:54.034Z,1.34
2023-01-27T05:56:57.297Z,1.29
2023-01-27T06:02:00.475Z,1.22
2023-01-27T06:07:03.814Z,1.19
2023-01-27T06:12:07.156Z,1.16
2023-01-27T06:17:10.302Z,1.13
2023-01-27T06:22:13.534Z,1.15
2023-01-27T06:27:16.867Z,1.20
2023-01-27T06:32:20.045Z,1.20
2023-01-27T06:37:23.281Z,1.16
2023-01-27T06:42:26.455Z,1.12
2023-01-27T06:47:29.630Z,1.13
2023-01-27T06:52:32.809Z,1.10
2023-01-27T06:57:36.126Z,1.12
2023-01-27T07:02:39.353Z,1.14
2023-01-27T07:07:42.742Z,1.31
2023-01-27T07:12:46.811Z,1.41
2023-01-27T07:17:49.846Z,1.44
2023-01-27T07:22:52.949Z,1.45
2023-01-27T07:28:00.135Z,1.52
2023-01-27T07:33:10.399Z,1.56
2023-01-27T07:38:13.602Z,1.65
2023-01-27T07:43:16.904Z,1.84
2023-01-27T07:48:20.790Z,2.06
2023-01-27T07:53:24.044Z,2.17
2023-01-27T07:58:27.318Z,2.24
2023-01-27T08:03:31.758Z,2.28
2023-01-27T08:08:38.964Z,2.26
2023-01-27T08:13:42.537Z,2.23
2023-01-27T08:18:45.799Z,2.23
2023-01-27T08:23:49.286Z,2.26
2023-01-27T08:28:52.526Z,2.37
2023-01-27T08:33:55.688Z,2.56
2023-01-27T08:38:59.156Z,2.73
2023-01-27T08:44:02.518Z,2.87
2023-01-27T08:49:05.825Z,2.96
2023-01-27T08:54:09.958Z,3.08
2023-01-27T08:59:13.542Z,3.11
2023-01-27T09:04:48.209Z,3.14
2023-01-27T09:10:01.048Z,3.11
2023-01-27T09:15:13.026Z,3.03
2023-01-27T09:20:16.466Z,2.96
2023-01-27T09:25:20.056Z,2.96
2023-01-27T09:30:25.424Z,3.05
2023-01-27T09:35:38.232Z,3.23
2023-01-27T09:40:50.497Z,3.34
2023-01-27T09:46:16.865Z,3.41
2023-01-27T09:51:30.237Z,3.47
2023-01-27T09:56:57.073Z,3.54
2023-01-27T10:02:28.075Z,3.61
2023-01-27T10:07:55.824Z,3.60
2023-01-27T10:13:11.661Z,3.53
2023-01-27T10:18:37.103Z,3.56
2023-01-27T10:24:08.843Z,3.60
2023-01-27T10:29:37.115Z,3.57
2023-01-27T10:34:51.948Z,3.57
2023-01-27T10:40:21.224Z,3.56
2023-01-27T10:45:37.880Z,3.56
2023-01-27T10:50:49.208Z,3.55
2023-01-27T10:56:10.185Z,3.48
2023-01-27T11:01:21.474Z,3.44
2023-01-27T11:06:30.815Z,3.46
2023-01-27T11:11:46.957Z,3.45
2023-01-27T11:16:54.397Z,3.39
2023-01-27T11:22:07.685Z,3.40
2023-01-27T11:27:22.897Z,3.44
2023-01-27T11:32:40.774Z,3.52
2023-01-27T11:37:53.719Z,3.55
2023-01-27T11:42:59.755Z,3.52
2023-01-27T11:48:12.687Z,3.47
2023-01-27T11:53:40.072Z,3.39
2023-01-27T11:58:57.005Z,3.36
2023-01-27T12:04:07.363Z,3.30
2023-01-27T12:09:30.826Z,3.23
2023-01-27T12:14:33.928Z,3.18
2023-01-27T12:19:42.905Z,3.16
2023-01-27T12:24:54.448Z,3.18
2023-01-27T12:30:08.496Z,3.12
2023-01-27T12:35:20.965Z,3.15
2023-01-27T12:40:27.823Z,3.23
2023-01-27T12:45:38.271Z,3.32
2023-01-27T12:50:50.693Z,3.35
2023-01-27T12:55:56.965Z,3.35
2023-01-27T13:01:07.677Z,3.32
2023-01-27T13:06:27.609Z,3.27
2023-01-27T13:11:39.298Z,3.21
2023-01-27T13:16:42.564Z,3.18
2023-01-27T13:21:50.714Z,3.19
2023-01-27T13:26:57.970Z,3.17
2023-01-27T13:32:19.382Z,3.18
2023-01-27T13:37:44.064Z,3.28
2023-01-27T13:43:20.021Z,3.31
2023-01-27T13:48:35.389Z,3.29
2023-01-27T13:53:39.482Z,3.27
2023-01-27T13:59:13.713Z,3.17
2023-01-27T14:04:44.719Z,3.04
2023-01-27T14:10:13.900Z,2.93
2023-01-27T14:15:43.350Z,2.93
2023-01-27T14:21:11.504Z,2.91
2023-01-27T14:26:29.144Z,2.90
2023-01-27T14:32:21.244Z,2.86
2023-01-27T14:37:46.109Z,2.87
2023-01-27T14:43:13.524Z,2.84
2023-01-27T14:48:35.584Z,2.76
2023-01-27T14:53:47.473Z,2.78
2023-01-27T14:59:12.214Z,2.84
2023-01-27T15:04:44.378Z,2.90
2023-01-27T15:10:12.462Z,2.92
2023-01-27T15:15:34.958Z,2.85
2023-01-27T15:21:04.706Z,2.76
2023-01-27T15:26:09.874Z,2.71
2023-01-27T15:31:19.282Z,2.66
2023-01-27T15:36:28.433Z,2.66
2023-01-27T15:41:34.610Z,2.70
2023-01-27T15:46:50.973Z,2.70
2023-01-27T15:52:07.986Z,2.70
2023-01-27T15:57:24.345Z,2.62
2023-01-27T16:02:54.494Z,2.52
2023-01-27T16:08:18.983Z,2.52
2023-01-27T16:13:27.006Z,2.58
2023-01-27T16:18:57.104Z,2.66
2023-01-27T16:24:08.395Z,2.72
2023-01-27T16:29:19.494Z,2.68
2023-01-27T16:34:33.400Z,2.60
2023-01-27T16:40:07.300Z,2.54
2023-01-27T16:45:21.496Z,2.52
2023-01-27T16:50:40.765Z,2.54
2023-01-27T16:55:57.544Z,2.60
2023-01-27T17:01:01.923Z,2.58
2023-01-27T17:06:28.971Z,2.54
2023-01-27T17:11:58.031Z,2.53
2023-01-27T17:17:18.727Z,2.47
2023-01-27T17:22:38.197Z,2.44
2023-01-27T17:27:46.596Z,2.48
2023-01-27T17:33:01.500Z,2.51
2023-01-27T17:38:25.401Z,2.49
2023-01-27T17:43:35.118Z,2.50
2023-01-27T17:48:42.195Z,2.43
2023-01-27T17:53:45.650Z,2.38
2023-01-27T17:58:53.441Z,2.33
2023-01-27T18:04:00.792Z,2.40
2023-01-27T18:09:17.704Z,2.48
2023-01-27T18:14:21.860Z,2.53
2023-01-27T18:19:25.818Z,2.53
2023-01-27T18:24:29.212Z,2.49
2023-01-27T18:29:37.453Z,2.43
2023-01-27T18:34:50.584Z,2.36
2023-01-27T18:39:54.693Z,2.38
2023-01-27T18:45:00.838Z,2.44
2023-01-27T18:50:13.460Z,2.43
2023-01-27T18:55:25.710Z,2.37
2023-01-27T19:00:37.975Z,2.32
2023-01-27T19:05:41.579Z,2.31
2023-01-27T19:10:46.697Z,2.24
2023-01-27T19:15:58.366Z,2.24
2023-01-27T19:21:02.517Z,2.31
2023-01-27T19:26:14.358Z,2.47
2023-01-27T19:31:21.502Z,2.54
2023-01-27T19:36:45.984Z,2.54
2023-01-27T19:41:49.538Z,2.46
2023-01-27T19:46:53.213Z,2.38
2023-01-27T19:51:56.435Z,2.32
2023-01-27T19:56:59.834Z,2.25
2023-01-27T20:02:03.179Z,2.28
2023-01-27T20:07:06.808Z,2.33
2023-01-27T20:12:15.147Z,2.32
2023-01-27T20:17:20.009Z,2.28
2023-01-27T20:22:26.161Z,2.24
2023-01-27T20:27:30.115Z,2.21
2023-01-27T20:32:33.279Z,2.18
2023-01-27T20:37:36.499Z,2.19
2023-01-27T20:42:39.768Z,2.32
2023-01-27T20:47:43.117Z,2.43
2023-01-27T20:52:48.529Z,2.41
2023-01-27T20:57:54.873Z,2.37
2023-01-27T21:02:58.103Z,2.32
2023-01-27T21:08:01.586Z,2.31
2023-01-27T21:13:04.982Z,2.30
2023-01-27T21:18:08.244Z,2.33
2023-01-27T21:23:11.778Z,2.36
2023-01-27T21:28:15.273Z,2.33
2023-01-27T21:33:18.437Z,2.28
2023-01-27T21:38:21.591Z,2.24
2023-01-27T21:43:43.898Z,2.21
2023-01-27T21:48:47.912Z,2.26
2023-01-27T21:53:51.056Z,2.32
2023-01-27T21:58:54.294Z,2.34
2023-01-27T22:03:57.483Z,2.33
2023-01-27T22:09:00.791Z,2.23
2023-01-27T22:14:04.185Z,2.17
2023-01-27T22:19:07.380Z,2.19
2023-01-27T22:24:10.543Z,2.26
2023-01-27T22:29:28.743Z,2.25
2023-01-27T22:34:44.700Z,2.17
2023-01-27T22:39:47.859Z,2.13
2023-01-27T22:44:52.424Z,2.10
2023-01-27T22:49:55.524Z,2.17
2023-01-27T22:54:58.902Z,2.25
2023-01-27T23:00:02.324Z,2.28
2023-01-27T23:05:06.139Z,2.29
2023-01-27T23:10:11.205Z,2.23
2023-01-27T23:15:15.034Z,2.16
2023-01-27T23:20:18.618Z,2.19
2023-01-27T23:25:22.246Z,2.20
2023-01-27T23:30:26.839Z,2.17
2023-01-27T23:35:30.095Z,2.13
2023-01-27T23:40:33.977Z,2.05
2023-01-27T23:45:37.271Z,2.00
2023-01-27T23:50:40.399Z,2.03
2023-01-27T23:55:43.988Z,2.08
